Battle Point — NMBY — position and weather

sailwx.info

Track history (hours):
 
Tides and Currents Weather Stations Pressure Air Temp Water Temp Dewpoint Dewpoint Depression Visibility Wind Speed Wind Dir Waves Ship Positions

Battle Point

Last reported at 2014-Sep-13 01:21 UTC. Time now 2014-Sep-19 11:51 UTC.
Position N 47°45' W 122°45'.

Length 57 m; draft 3.2 m.

MMSI: 369970254.

Date/timePositionNaut miles runAvg speedWind from/ knotsBaromVisibWave heightAir tempDewpointWater temp
2014-Sep-13 01:21N 47°45' W 122°45'7 9.0
2014-Sep-13 00:33N 47°50' W 122°39'9 8.9
2014-Sep-12 23:30N 47°60' W 122°39'1212.1
2014-Sep-12 22:30N 48°11' W 122°47'1111.5
2014-Sep-12 21:33N 48°22' W 122°46'1212.3
2014-Sep-12 20:33N 48°34' W 122°45'1111.5
2014-Sep-12 19:33N 48°45' W 122°48'1211.5
2014-Sep-12 18:34N 48°51' W 123°03'1212.1
2014-Sep-12 17:33N 48°59' W 123°18'1211.6
2014-Sep-12 16:33N 49°06' W 123°31'1111.3
2014-Sep-12 15:33N 49°12' W 123°46'1111.2
2014-Sep-12 14:33N 49°16' W 124°02'5 4.5
2014-Sep-12 13:34N 49°16' W 124°09'  
2014-Sep-09 01:21N 49°16' W 124°05'911.1
2014-Sep-09 00:34N 49°14' W 123°52'1111.2
2014-Sep-08 23:33N 49°10' W 123°36'1111.2
2014-Sep-08 22:34N 49°04' W 123°21'1211.9
2014-Sep-08 21:34N 48°57' W 123°07'1111.1
2014-Sep-08 20:33N 48°49' W 122°54'1111.2
2014-Sep-08 19:34N 48°41' W 122°43'1010.1
2014-Sep-08 18:33N 48°31' W 122°45'9 9.1
2014-Sep-08 17:32N 48°22' W 122°45'10 9.6
2014-Sep-08 16:32N 48°12' W 122°48'1313.5
2014-Sep-08 15:33N 48°01' W 122°39'1110.7
2014-Sep-08 14:33N 47°50' W 122°39'7 6.7
2014-Sep-08 13:33N 47°44' W 122°44'  
2014-Sep-05 14:13N 47°44' W 122°44'  
Track history (hours):
 
Tides and Currents Weather Stations Pressure Air Temp Water Temp Dewpoint Dewpoint Depression Visibility Wind Speed Wind Dir Waves Ship Positions

Battle Point

Last reported at 2014-Sep-13 01:21 UTC. Time now 2014-Sep-19 11:51 UTC.
Position N 47°45' W 122°45'.

Length 57 m; draft 3.2 m.

MMSI: 369970254.

Date/timePositionNaut miles runAvg speedWind from/ knotsBaromVisibWave heightAir tempDewpointWater temp
2014-Sep-13 01:21N 47°45' W 122°45'7 9.0
2014-Sep-13 00:33N 47°50' W 122°39'9 8.9
2014-Sep-12 23:30N 47°60' W 122°39'1212.1
2014-Sep-12 22:30N 48°11' W 122°47'1111.5
2014-Sep-12 21:33N 48°22' W 122°46'1212.3
2014-Sep-12 20:33N 48°34' W 122°45'1111.5
2014-Sep-12 19:33N 48°45' W 122°48'1211.5
2014-Sep-12 18:34N 48°51' W 123°03'1212.1
2014-Sep-12 17:33N 48°59' W 123°18'1211.6
2014-Sep-12 16:33N 49°06' W 123°31'1111.3
2014-Sep-12 15:33N 49°12' W 123°46'1111.2
2014-Sep-12 14:33N 49°16' W 124°02'5 4.5
2014-Sep-12 13:34N 49°16' W 124°09'  
2014-Sep-09 01:21N 49°16' W 124°05'911.1
2014-Sep-09 00:34N 49°14' W 123°52'1111.2
2014-Sep-08 23:33N 49°10' W 123°36'1111.2
2014-Sep-08 22:34N 49°04' W 123°21'1211.9
2014-Sep-08 21:34N 48°57' W 123°07'1111.1
2014-Sep-08 20:33N 48°49' W 122°54'1111.2
2014-Sep-08 19:34N 48°41' W 122°43'1010.1
2014-Sep-08 18:33N 48°31' W 122°45'9 9.1
2014-Sep-08 17:32N 48°22' W 122°45'10 9.6
2014-Sep-08 16:32N 48°12' W 122°48'1313.5
2014-Sep-08 15:33N 48°01' W 122°39'1110.7
2014-Sep-08 14:33N 47°50' W 122°39'7 6.7
2014-Sep-08 13:33N 47°44' W 122°44'  
2014-Sep-05 14:13N 47°44' W 122°44'  

Dump ship's entire track history